Time;durP1;ratioP1;P1;durP2;ratioP2;P2;SDS_P1;SDS_P2;PMS_P1;PMS_P2;Temp;Humidity;BMP_temperature;BMP_pressure;BME280_temperature;BME280_humidity;BME280_pressure;Samples;Min_cycle;Max_cycle;Signal;HPM_P1;HPM_P2
2021/05/24 00:00:41;;;;;;;9.32;3.72;;;11.00;90.50;;;;;;5044756;28;20040;-71
2021/05/24 00:03:07;;;;;;;9.88;3.50;;;10.90;90.50;;;;;;5060556;28;20036;-73
2021/05/24 00:05:35;;;;;;;5.63;3.28;;;10.90;90.50;;;;;;5063141;28;20039;-72
2021/05/24 00:08:02;;;;;;;6.75;3.88;;;10.90;90.50;;;;;;5061497;28;20394;-72
2021/05/24 00:10:31;;;;;;;6.93;4.47;;;10.90;90.60;;;;;;5061222;28;20056;-72
2021/05/24 00:13:01;;;;;;;7.63;3.92;;;10.90;90.60;;;;;;5061833;28;20099;-72
2021/05/24 00:15:30;;;;;;;6.05;3.70;;;10.90;90.60;;;;;;5060452;28;20032;-71
2021/05/24 00:17:56;;;;;;;6.97;4.10;;;11.00;90.60;;;;;;5060617;28;20038;-72
2021/05/24 00:20:32;;;;;;;7.30;4.45;;;11.00;90.70;;;;;;5041603;28;20115;-72
2021/05/24 00:22:58;;;;;;;9.30;4.00;;;11.00;90.70;;;;;;5062410;28;20483;-72
2021/05/24 00:25:25;;;;;;;5.13;3.85;;;10.90;90.80;;;;;;5062603;28;20040;-71
2021/05/24 00:27:51;;;;;;;9.05;4.28;;;11.00;90.80;;;;;;5042049;28;20101;-72
2021/05/24 00:30:18;;;;;;;6.40;4.15;;;10.90;90.80;;;;;;5043551;28;20033;-72
2021/05/24 00:32:43;;;;;;;6.32;3.95;;;10.90;90.90;;;;;;5043316;28;20036;-72
2021/05/24 00:35:11;;;;;;;7.25;3.70;;;10.90;90.90;;;;;;5027948;28;20486;-71
2021/05/24 00:37:38;;;;;;;6.07;4.05;;;10.90;90.90;;;;;;5060822;28;20098;-71
2021/05/24 00:40:08;;;;;;;6.80;3.70;;;10.90;90.90;;;;;;5061729;28;20115;-72
2021/05/24 00:42:34;;;;;;;7.60;3.50;;;10.90;91.00;;;;;;5061953;28;20059;-72
2021/05/24 00:45:03;;;;;;;5.68;3.70;;;10.90;91.00;;;;;;5060809;28;20032;-72
2021/05/24 00:47:29;;;;;;;9.10;4.28;;;10.90;91.00;;;;;;5061442;28;20064;-72
2021/05/24 00:49:55;;;;;;;5.18;3.25;;;10.90;91.00;;;;;;5043171;28;20517;-72
2021/05/24 00:52:20;;;;;;;7.20;4.45;;;10.90;91.00;;;;;;5062775;28;20074;-72
2021/05/24 00:54:46;;;;;;;9.05;4.50;;;10.90;91.00;;;;;;5060346;28;20032;-72
2021/05/24 00:57:12;;;;;;;5.55;3.83;;;10.90;91.00;;;;;;5061163;28;20116;-72
2021/05/24 00:59:38;;;;;;;7.22;3.35;;;10.90;91.00;;;;;;5061195;28;20032;-72
2021/05/24 01:02:04;;;;;;;5.97;3.50;;;10.90;91.00;;;;;;5060315;28;20077;-72
2021/05/24 01:04:31;;;;;;;8.85;3.75;;;10.90;90.90;;;;;;5060016;28;20040;-72
2021/05/24 01:06:57;;;;;;;6.93;3.83;;;10.90;90.90;;;;;;5042611;28;20367;-71
2021/05/24 01:09:24;;;;;;;7.45;4.10;;;10.90;90.90;;;;;;5062059;28;20039;-72
2021/05/24 01:11:50;;;;;;;10.73;3.90;;;10.90;90.90;;;;;;5062190;28;20037;-72
2021/05/24 01:14:16;;;;;;;7.50;3.70;;;10.90;90.90;;;;;;5060413;28;20037;-71
2021/05/24 01:16:44;;;;;;;6.40;3.53;;;10.90;91.00;;;;;;5042480;28;20032;-71
2021/05/24 01:19:10;;;;;;;5.13;3.53;;;10.90;90.90;;;;;;5059220;28;20258;-72
2021/05/24 01:21:36;;;;;;;6.57;3.88;;;10.90;90.90;;;;;;5062914;28;20055;-72
2021/05/24 01:24:01;;;;;;;5.40;3.90;;;10.80;90.80;;;;;;5059623;28;20039;-71
2021/05/24 01:26:27;;;;;;;5.80;3.90;;;10.80;90.80;;;;;;5060065;28;20029;-71
2021/05/24 01:28:54;;;;;;;6.32;3.78;;;10.80;90.90;;;;;;5059477;28;20033;-72
2021/05/24 01:31:20;;;;;;;6.13;3.95;;;10.80;90.80;;;;;;5060982;28;20369;-72
2021/05/24 01:33:46;;;;;;;5.68;3.35;;;10.80;90.80;;;;;;5055911;28;20026;-72
2021/05/24 01:36:14;;;;;;;5.20;3.17;;;10.80;90.80;;;;;;5061782;28;20029;-71
2021/05/24 01:38:42;;;;;;;8.45;4.20;;;10.80;90.70;;;;;;5061435;28;20028;-71
2021/05/24 01:41:10;;;;;;;7.55;4.10;;;10.80;90.70;;;;;;5060051;28;20475;-71
2021/05/24 01:43:36;;;;;;;10.30;3.92;;;10.80;90.60;;;;;;5059334;28;20085;-71
2021/05/24 01:46:03;;;;;;;7.78;3.97;;;10.80;90.60;;;;;;5062025;28;20069;-72
2021/05/24 01:48:30;;;;;;;8.07;4.15;;;10.80;90.60;;;;;;5061074;28;20583;-72
2021/05/24 01:50:56;;;;;;;6.68;3.60;;;10.80;90.60;;;;;;5059815;28;20139;-71
2021/05/24 01:53:22;;;;;;;7.68;3.78;;;10.80;90.60;;;;;;5059987;28;20116;-72
2021/05/24 01:55:48;;;;;;;5.00;3.88;;;10.80;90.60;;;;;;5059440;28;20050;-72
2021/05/24 01:58:14;;;;;;;8.77;4.32;;;10.80;90.50;;;;;;5058648;28;20458;-71
2021/05/24 02:00:40;;;;;;;6.30;3.60;;;10.70;90.40;;;;;;5058969;28;20056;-71
2021/05/24 02:03:07;;;;;;;7.65;3.63;;;10.80;90.20;;;;;;5060350;28;20055;-71
2021/05/24 02:05:34;;;;;;;6.25;4.15;;;10.70;90.30;;;;;;5042587;28;20032;-71
2021/05/24 02:08:00;;;;;;;5.32;3.83;;;10.70;90.30;;;;;;5060445;28;20093;-71
2021/05/24 02:10:28;;;;;;;8.52;3.25;;;10.80;90.40;;;;;;5059082;28;20020;-72
2021/05/24 02:12:55;;;;;;;6.60;3.45;;;10.80;90.30;;;;;;5060598;28;20075;-71
2021/05/24 02:15:30;;;;;;;24.05;4.65;;;10.80;90.40;;;;;;5060815;28;20040;-72
2021/05/24 02:17:56;;;;;;;8.20;4.22;;;10.80;90.40;;;;;;5060796;28;20079;-71
2021/05/24 02:20:25;;;;;;;8.75;5.05;;;10.80;90.50;;;;;;5046141;28;20031;-71
2021/05/24 02:22:58;;;;;;;7.93;4.53;;;10.80;90.40;;;;;;5062849;28;20406;-71
2021/05/24 02:25:25;;;;;;;7.35;4.60;;;10.80;90.40;;;;;;5063054;28;20028;-72
2021/05/24 02:27:51;;;;;;;8.00;4.75;;;10.80;90.50;;;;;;5063828;28;20470;-71
2021/05/24 02:30:19;;;;;;;8.70;4.55;;;10.80;90.50;;;;;;5064372;28;20032;-71
2021/05/24 02:32:45;;;;;;;8.68;5.25;;;10.80;90.50;;;;;;5063055;28;20315;-72
2021/05/24 02:35:13;;;;;;;10.90;4.47;;;10.80;90.50;;;;;;5063246;28;20032;-71
2021/05/24 02:37:40;;;;;;;5.38;3.95;;;10.80;90.60;;;;;;5062375;28;20068;-71
2021/05/24 02:40:08;;;;;;;6.43;4.60;;;10.80;90.70;;;;;;5064825;28;20028;-71
2021/05/24 02:42:35;;;;;;;6.47;4.50;;;10.80;90.70;;;;;;5063785;28;20383;-72
2021/05/24 02:45:01;;;;;;;6.40;4.43;;;10.80;90.50;;;;;;5045235;28;20029;-71
2021/05/24 02:47:27;;;;;;;7.03;4.50;;;10.80;90.50;;;;;;5044766;28;20426;-71
2021/05/24 02:49:52;;;;;;;6.47;4.55;;;10.80;90.40;;;;;;5063220;28;20032;-70
2021/05/24 02:52:18;;;;;;;8.95;4.00;;;10.80;90.40;;;;;;5063902;28;20036;-70
2021/05/24 02:54:44;;;;;;;8.27;4.50;;;10.80;90.40;;;;;;5062372;28;20113;-70
2021/05/24 02:57:09;;;;;;;8.20;4.10;;;10.80;90.30;;;;;;5063715;28;20032;-71
2021/05/24 02:59:35;;;;;;;8.45;3.45;;;10.80;90.20;;;;;;5062059;28;20033;-71
2021/05/24 03:02:02;;;;;;;6.07;3.95;;;10.80;90.10;;;;;;5063606;28;20035;-70
2021/05/24 03:04:30;;;;;;;5.93;3.83;;;10.80;90.10;;;;;;5062488;28;20514;-73
2021/05/24 03:06:55;;;;;;;4.97;3.45;;;10.80;90.00;;;;;;5062101;28;20402;-72
2021/05/24 03:09:21;;;;;;;7.05;3.50;;;10.80;89.60;;;;;;5063837;28;20032;-70
2021/05/24 03:11:47;;;;;;;6.20;3.40;;;10.70;89.20;;;;;;5062526;28;20056;-72
2021/05/24 03:14:15;;;;;;;7.05;3.15;;;10.70;89.00;;;;;;5063667;28;20389;-72
2021/05/24 03:16:42;;;;;;;7.03;3.25;;;10.70;88.80;;;;;;5045289;28;20064;-72
2021/05/24 03:19:08;;;;;;;5.30;2.88;;;10.70;88.30;;;;;;5063661;28;20037;-72
2021/05/24 03:21:34;;;;;;;5.68;3.17;;;10.70;88.30;;;;;;5062723;28;20017;-70
2021/05/24 03:24:00;;;;;;;5.93;3.10;;;10.70;88.30;;;;;;5062029;28;20565;-73
2021/05/24 03:26:25;;;;;;;4.22;3.00;;;10.70;88.40;;;;;;5062884;28;20036;-73
2021/05/24 03:28:51;;;;;;;5.85;3.15;;;10.70;88.20;;;;;;5062909;28;20056;-71
2021/05/24 03:31:18;;;;;;;4.40;2.75;;;10.70;88.40;;;;;;5063522;28;20052;-70
2021/05/24 03:33:44;;;;;;;7.10;3.38;;;10.70;88.60;;;;;;5059927;28;20059;-70
2021/05/24 03:36:09;;;;;;;7.45;3.58;;;10.70;88.50;;;;;;5046478;28;20461;-71
2021/05/24 03:38:36;;;;;;;5.30;2.88;;;10.70;88.20;;;;;;5063261;28;20139;-72
2021/05/24 03:41:03;;;;;;;3.95;2.92;;;10.70;88.00;;;;;;5044856;28;20608;-72
2021/05/24 03:43:30;;;;;;;4.00;2.80;;;10.70;87.70;;;;;;5065383;28;20059;-72
2021/05/24 03:45:56;;;;;;;5.28;3.20;;;10.70;87.90;;;;;;5044000;28;20036;-70
2021/05/24 03:48:22;;;;;;;4.93;2.60;;;10.70;87.80;;;;;;5061848;28;20106;-73
2021/05/24 03:50:48;;;;;;;5.75;3.22;;;10.70;87.50;;;;;;5060772;28;20111;-70
2021/05/24 03:53:14;;;;;;;4.22;2.53;;;10.70;87.40;;;;;;5061924;28;20108;-73
2021/05/24 03:55:39;;;;;;;7.95;3.40;;;10.70;87.50;;;;;;5062841;28;20029;-72
2021/05/24 03:58:05;;;;;;;4.15;2.72;;;10.70;87.30;;;;;;5043455;28;20028;-73
2021/05/24 04:00:31;;;;;;;7.47;2.67;;;10.70;87.40;;;;;;5043081;28;20463;-72
2021/05/24 04:02:57;;;;;;;5.63;2.95;;;10.70;87.40;;;;;;5063776;28;20025;-72
2021/05/24 04:05:35;;;;;;;4.05;2.88;;;10.70;87.30;;;;;;5059981;28;20503;-72
2021/05/24 04:08:03;;;;;;;6.57;2.78;;;10.70;87.40;;;;;;5060996;28;20486;-71
2021/05/24 04:10:37;;;;;;;8.70;2.58;;;10.70;87.40;;;;;;5061702;28;20475;-73
2021/05/24 04:13:03;;;;;;;6.35;3.50;;;10.70;87.30;;;;;;5061202;28;20090;-72
2021/05/24 04:15:29;;;;;;;4.15;2.55;;;10.70;87.30;;;;;;5043714;28;20475;-73
2021/05/24 04:18:01;;;;;;;6.20;2.45;;;10.70;87.20;;;;;;5061306;28;20483;-72
2021/05/24 04:20:26;;;;;;;7.22;2.70;;;10.70;87.10;;;;;;5061764;28;20082;-72
2021/05/24 04:22:53;;;;;;;3.78;2.72;;;10.60;86.90;;;;;;5060468;28;20032;-72
2021/05/24 04:25:19;;;;;;;4.03;2.33;;;10.70;86.70;;;;;;5061874;28;20060;-71
2021/05/24 04:27:45;;;;;;;7.53;2.72;;;10.60;86.40;;;;;;5060855;28;20086;-72
2021/05/24 04:30:14;;;;;;;7.65;2.75;;;10.60;86.70;;;;;;5063321;28;20028;-72
2021/05/24 04:32:40;;;;;;;6.97;2.40;;;10.60;86.70;;;;;;5060476;28;20044;-72
2021/05/24 04:35:08;;;;;;;3.83;2.00;;;10.70;86.90;;;;;;5060570;28;20032;-71
2021/05/24 04:37:33;;;;;;;3.00;2.00;;;10.60;86.60;;;;;;5060391;28;20036;-72
2021/05/24 04:39:59;;;;;;;6.95;2.47;;;10.70;86.90;;;;;;5063148;28;20032;-72
2021/05/24 04:42:25;;;;;;;6.82;2.10;;;10.70;87.30;;;;;;5064045;28;20056;-72
2021/05/24 04:44:51;;;;;;;3.97;2.10;;;10.70;86.70;;;;;;5060858;28;20067;-71
2021/05/24 04:47:17;;;;;;;3.35;2.10;;;10.70;86.80;;;;;;5061715;28;20028;-71
2021/05/24 04:49:49;;;;;;;5.95;2.25;;;10.80;86.90;;;;;;5062679;28;20078;-70
2021/05/24 04:52:19;;;;;;;2.63;2.08;;;10.70;86.30;;;;;;5061836;28;20095;-71
2021/05/24 04:54:45;;;;;;;4.03;2.20;;;10.70;86.10;;;;;;5060728;28;20025;-71
2021/05/24 04:57:12;;;;;;;4.43;1.92;;;10.70;86.30;;;;;;5060355;28;20033;-71
2021/05/24 04:59:38;;;;;;;4.13;1.92;;;10.70;86.50;;;;;;5062012;28;20077;-71
2021/05/24 05:02:04;;;;;;;7.03;2.40;;;10.80;86.70;;;;;;5059719;28;20032;-71
2021/05/24 05:04:33;;;;;;;5.32;2.10;;;10.80;86.60;;;;;;5045248;28;20036;-70
2021/05/24 05:06:59;;;;;;;3.92;1.98;;;10.90;86.50;;;;;;5060438;28;20456;-71
2021/05/24 05:09:25;;;;;;;2.92;1.52;;;11.00;86.20;;;;;;5061109;28;20025;-71
2021/05/24 05:11:55;;;;;;;4.38;2.20;;;11.10;86.20;;;;;;5060724;28;20081;-70
2021/05/24 05:14:25;;;;;;;3.38;1.98;;;11.20;85.80;;;;;;5061488;28;20035;-71
2021/05/24 05:16:51;;;;;;;2.05;1.48;;;11.20;84.90;;;;;;5061117;28;20042;-71
2021/05/24 05:19:17;;;;;;;3.55;1.50;;;11.30;84.60;;;;;;5061559;28;20086;-72
2021/05/24 05:21:43;;;;;;;7.22;1.65;;;11.40;84.40;;;;;;5062791;28;20025;-71
2021/05/24 05:24:09;;;;;;;2.55;1.40;;;11.40;83.90;;;;;;5059297;28;20025;-71
2021/05/24 05:26:35;;;;;;;3.58;1.77;;;11.40;83.90;;;;;;5042514;28;20395;-73
2021/05/24 05:29:01;;;;;;;4.72;1.52;;;11.50;83.80;;;;;;5059184;28;20035;-70
2021/05/24 05:31:27;;;;;;;3.28;1.73;;;11.50;83.40;;;;;;5041332;28;20082;-72
2021/05/24 05:33:52;;;;;;;1.85;1.30;;;11.50;83.60;;;;;;5057975;28;20562;-72
2021/05/24 05:36:18;;;;;;;5.50;1.85;;;11.50;83.40;;;;;;5060907;28;20637;-71
2021/05/24 05:38:44;;;;;;;2.97;1.33;;;11.50;82.90;;;;;;5058530;28;20032;-71
2021/05/24 05:41:10;;;;;;;4.68;2.15;;;11.60;83.50;;;;;;5059770;28;20463;-71
2021/05/24 05:43:36;;;;;;;3.90;1.98;;;11.60;83.40;;;;;;5062627;28;20036;-71
2021/05/24 05:46:01;;;;;;;3.72;1.55;;;11.60;83.50;;;;;;5059603;28;20108;-71
2021/05/24 05:48:27;;;;;;;4.32;1.60;;;11.60;83.90;;;;;;5059563;28;20033;-71
2021/05/24 05:50:53;;;;;;;2.63;1.58;;;11.60;83.90;;;;;;5042307;28;20514;-71
2021/05/24 05:53:18;;;;;;;3.25;1.60;;;11.60;83.90;;;;;;5061854;28;20482;-71
2021/05/24 05:55:44;;;;;;;2.70;1.65;;;11.70;84.20;;;;;;5062441;28;20365;-71
2021/05/24 05:58:10;;;;;;;4.00;1.77;;;11.60;84.10;;;;;;5064497;28;20033;-71
2021/05/24 06:00:37;;;;;;;3.00;1.55;;;11.70;83.70;;;;;;5063107;28;20032;-71
2021/05/24 06:03:04;;;;;;;4.03;1.50;;;11.70;84.00;;;;;;5063731;28;20096;-71
2021/05/24 06:05:29;;;;;;;3.30;1.70;;;11.80;83.60;;;;;;5062832;28;20044;-71
2021/05/24 06:07:55;;;;;;;2.22;1.33;;;11.80;83.80;;;;;;5063530;28;20033;-71
2021/05/24 06:10:21;;;;;;;3.30;1.58;;;11.90;83.90;;;;;;5065545;28;20029;-71
2021/05/24 06:12:47;;;;;;;2.38;1.27;;;11.90;83.80;;;;;;5045593;28;20020;-72
2021/05/24 06:15:17;;;;;;;4.28;1.30;;;12.00;84.20;;;;;;5061788;28;20036;-71
2021/05/24 06:17:46;;;;;;;4.78;1.58;;;12.10;83.60;;;;;;5065653;28;20044;-71
2021/05/24 06:20:12;;;;;;;5.28;1.58;;;12.20;83.20;;;;;;5063630;28;20025;-72
2021/05/24 06:22:38;;;;;;;3.92;1.92;;;12.20;82.60;;;;;;5063829;28;20521;-70
2021/05/24 06:25:08;;;;;;;3.53;1.38;;;12.30;82.90;;;;;;5063938;28;20028;-71
2021/05/24 06:27:34;;;;;;;3.65;1.70;;;12.40;82.80;;;;;;5063834;28;20127;-71
2021/05/24 06:30:01;;;;;;;2.95;1.48;;;12.40;82.30;;;;;;5064267;28;20104;-71
2021/05/24 06:32:26;;;;;;;3.60;1.55;;;12.50;82.30;;;;;;5063192;28;20032;-71
2021/05/24 06:34:52;;;;;;;2.80;1.50;;;12.50;82.20;;;;;;5064449;28;20025;-71
2021/05/24 06:37:18;;;;;;;2.90;1.35;;;12.60;82.20;;;;;;5062796;28;20223;-71
2021/05/24 06:39:44;;;;;;;2.42;1.15;;;12.60;82.20;;;;;;5062832;28;20383;-71
2021/05/24 06:42:10;;;;;;;3.85;1.60;;;12.70;82.40;;;;;;5063290;28;20021;-71
2021/05/24 06:44:36;;;;;;;4.05;1.92;;;12.80;82.20;;;;;;5063317;28;20474;-71
2021/05/24 06:47:01;;;;;;;3.58;1.63;;;12.80;82.60;;;;;;5061357;28;20032;-71
2021/05/24 06:49:27;;;;;;;6.18;1.83;;;12.90;82.30;;;;;;5064059;28;20028;-71
2021/05/24 06:51:53;;;;;;;5.55;1.40;;;12.90;82.10;;;;;;5067536;28;20476;-71
2021/05/24 06:54:18;;;;;;;4.55;1.70;;;13.00;82.40;;;;;;5065822;28;20497;-71
2021/05/24 06:56:44;;;;;;;3.58;1.25;;;13.10;82.50;;;;;;5063791;28;20052;-71
2021/05/24 06:59:10;;;;;;;2.22;1.10;;;13.10;82.40;;;;;;5063140;28;20374;-71
2021/05/24 07:01:38;;;;;;;2.30;1.35;;;13.20;81.60;;;;;;5061498;28;20024;-71
2021/05/24 07:04:04;;;;;;;3.10;1.50;;;13.30;81.60;;;;;;5062431;28;20867;-71
2021/05/24 07:06:29;;;;;;;2.15;0.95;;;13.40;81.10;;;;;;5063916;28;20158;-71
2021/05/24 07:08:55;;;;;;;5.07;1.40;;;13.40;81.10;;;;;;5063531;28;20116;-70
2021/05/24 07:11:21;;;;;;;3.78;1.00;;;13.50;80.70;;;;;;5063121;28;20024;-72
2021/05/24 07:13:47;;;;;;;3.03;1.00;;;13.60;80.40;;;;;;5046046;28;20032;-70
2021/05/24 07:16:12;;;;;;;3.78;1.10;;;13.70;79.80;;;;;;5062830;28;20055;-71
2021/05/24 07:18:39;;;;;;;1.83;0.88;;;13.80;80.10;;;;;;5062666;28;20028;-71
2021/05/24 07:21:04;;;;;;;4.03;1.30;;;13.90;79.90;;;;;;5045041;28;20032;-70
2021/05/24 07:23:31;;;;;;;2.80;1.05;;;13.90;79.20;;;;;;5063377;28;20078;-71
2021/05/24 07:25:58;;;;;;;5.05;1.20;;;14.00;79.60;;;;;;5064750;28;20056;-71
2021/05/24 07:28:23;;;;;;;2.17;1.05;;;14.10;79.80;;;;;;5044613;28;20089;-70
2021/05/24 07:30:49;;;;;;;2.38;0.95;;;14.20;79.40;;;;;;5062985;28;20040;-70
2021/05/24 07:33:15;;;;;;;1.85;0.88;;;14.20;79.10;;;;;;5045347;28;20053;-71
2021/05/24 07:35:41;;;;;;;2.72;1.23;;;14.30;78.30;;;;;;5065221;28;20039;-70
2021/05/24 07:38:08;;;;;;;3.05;0.90;;;14.30;77.90;;;;;;5046402;28;20037;-72
2021/05/24 07:40:34;;;;;;;1.58;1.00;;;14.40;78.50;;;;;;5063537;28;20494;-72
2021/05/24 07:43:01;;;;;;;3.50;1.10;;;14.50;77.30;;;;;;5060755;28;20032;-71
2021/05/24 07:45:26;;;;;;;3.40;1.00;;;14.60;77.10;;;;;;5030395;28;20035;-71
2021/05/24 07:47:52;;;;;;;4.18;1.30;;;14.70;75.80;;;;;;5059794;28;20029;-71
2021/05/24 07:50:19;;;;;;;4.63;1.20;;;14.80;75.60;;;;;;5045070;28;20064;-71
2021/05/24 07:52:45;;;;;;;3.20;1.05;;;14.90;74.70;;;;;;5063938;28;20033;-70
2021/05/24 07:55:11;;;;;;;1.73;0.73;;;15.00;74.60;;;;;;5047761;28;20024;-71
2021/05/24 07:57:38;;;;;;;2.67;1.27;;;15.10;74.20;;;;;;5045408;28;20035;-70
2021/05/24 08:00:06;;;;;;;3.15;1.02;;;15.10;74.60;;;;;;5069395;28;20046;-74
2021/05/24 08:02:32;;;;;;;2.95;1.17;;;15.10;74.70;;;;;;5070492;28;20109;-72
2021/05/24 08:04:58;;;;;;;3.17;1.00;;;15.10;74.50;;;;;;5045624;28;20053;-71
2021/05/24 08:07:24;;;;;;;2.13;0.90;;;15.10;74.10;;;;;;5065476;28;20093;-71
2021/05/24 08:09:51;;;;;;;1.05;0.70;;;15.00;74.20;;;;;;5068921;28;20091;-72
2021/05/24 08:12:17;;;;;;;1.60;0.90;;;15.10;74.30;;;;;;5069708;28;20047;-73
2021/05/24 08:14:43;;;;;;;2.30;1.00;;;15.00;75.00;;;;;;5060398;28;20028;-73
2021/05/24 08:17:08;;;;;;;4.20;1.05;;;15.10;74.50;;;;;;5059436;28;20417;-73
2021/05/24 08:19:35;;;;;;;1.52;0.70;;;15.30;73.00;;;;;;5063059;28;20024;-72
2021/05/24 08:22:01;;;;;;;3.35;0.85;;;15.40;73.20;;;;;;5064277;28;20483;-72
2021/05/24 08:24:26;;;;;;;2.70;0.70;;;15.50;73.10;;;;;;5067850;28;20063;-72
2021/05/24 08:26:52;;;;;;;1.48;0.80;;;15.60;72.50;;;;;;5064856;28;20490;-72
2021/05/24 08:29:18;;;;;;;3.60;0.70;;;15.90;71.90;;;;;;5042668;28;21933;-72
2021/05/24 08:31:46;;;;;;;4.47;0.85;;;16.00;71.70;;;;;;5061738;28;20032;-72
2021/05/24 08:34:12;;;;;;;3.83;0.95;;;16.10;71.20;;;;;;5060907;28;20035;-72
2021/05/24 08:36:38;;;;;;;2.05;0.93;;;16.30;71.70;;;;;;5061871;28;20028;-71
2021/05/24 08:39:06;;;;;;;2.30;0.90;;;16.40;69.20;;;;;;5044245;28;20037;-71
2021/05/24 08:41:33;;;;;;;1.65;0.60;;;16.60;69.60;;;;;;5059998;28;20055;-70
2021/05/24 08:43:59;;;;;;;2.40;0.73;;;16.90;69.30;;;;;;5059346;28;20032;-69
2021/05/24 08:46:26;;;;;;;1.92;0.88;;;17.00;67.40;;;;;;5038853;28;20025;-70
2021/05/24 08:48:52;;;;;;;2.60;1.05;;;17.20;66.70;;;;;;5058032;28;20434;-71
2021/05/24 08:51:18;;;;;;;2.47;1.00;;;17.30;66.40;;;;;;5043909;28;20034;-68
2021/05/24 08:53:43;;;;;;;4.68;0.98;;;17.20;66.40;;;;;;5061749;28;20040;-69
2021/05/24 08:56:10;;;;;;;4.55;1.00;;;17.10;67.00;;;;;;5037388;28;20151;-72
2021/05/24 08:58:36;;;;;;;3.20;1.02;;;17.10;66.70;;;;;;5061490;28;20108;-71
2021/05/24 09:01:03;;;;;;;2.78;0.60;;;17.20;65.80;;;;;;5057788;28;20465;-71
2021/05/24 09:03:36;;;;;;;1.98;0.90;;;17.10;65.60;;;;;;5056111;28;20040;-71
2021/05/24 09:06:07;;;;;;;3.20;0.93;;;17.20;66.30;;;;;;5041099;28;20554;-72
2021/05/24 09:08:41;;;;;;;3.20;0.90;;;17.20;65.70;;;;;;5060640;28;20421;-70
2021/05/24 09:11:31;;;;;;;2.92;0.80;;;17.30;67.10;;;;;;5058792;28;20037;-70
2021/05/24 09:13:57;;;;;;;2.08;0.90;;;17.30;65.40;;;;;;5060089;28;20147;-72
2021/05/24 09:16:34;;;;;;;3.15;0.68;;;17.40;64.90;;;;;;5057657;28;20659;-71
2021/05/24 09:19:18;;;;;;;2.30;0.60;;;17.40;64.60;;;;;;5063815;28;20032;-70
2021/05/24 09:21:54;;;;;;;2.83;0.90;;;17.50;65.00;;;;;;5060355;28;20090;-72
2021/05/24 09:24:22;;;;;;;1.85;0.90;;;17.50;64.40;;;;;;5059150;28;20299;-71
2021/05/24 09:26:49;;;;;;;2.75;1.00;;;17.50;63.80;;;;;;5059910;28;20036;-71
2021/05/24 09:29:17;;;;;;;3.05;1.00;;;17.60;62.30;;;;;;5062374;28;20024;-71
2021/05/24 09:31:42;;;;;;;2.78;0.77;;;17.70;63.10;;;;;;5042233;28;20028;-72
2021/05/24 09:34:08;;;;;;;3.78;1.10;;;17.80;60.90;;;;;;5058219;28;20036;-71
2021/05/24 09:36:34;;;;;;;3.17;0.90;;;17.90;62.90;;;;;;5064897;28;20039;-71
2021/05/24 09:39:11;;;;;;;1.65;0.70;;;17.90;63.90;;;;;;5043243;28;20021;-70
2021/05/24 09:41:45;;;;;;;2.95;0.70;;;18.00;63.10;;;;;;5062539;28;20029;-71
2021/05/24 09:44:26;;;;;;;4.13;1.00;;;18.10;62.60;;;;;;5058629;28;20025;-72
2021/05/24 09:46:53;;;;;;;1.80;0.77;;;18.10;61.70;;;;;;5058834;28;20767;-71
2021/05/24 09:49:24;;;;;;;1.83;0.57;;;18.30;60.70;;;;;;5060390;28;20029;-71
2021/05/24 09:51:51;;;;;;;1.73;0.87;;;18.40;58.80;;;;;;5057107;28;20125;-72
2021/05/24 09:54:17;;;;;;;2.47;0.75;;;18.40;58.90;;;;;;5060269;28;20365;-71
2021/05/24 09:56:49;;;;;;;2.97;0.70;;;18.40;58.40;;;;;;5042617;28;20553;-71
2021/05/24 09:59:17;;;;;;;2.55;1.38;;;18.40;60.20;;;;;;5062397;28;20048;-71
2021/05/24 10:01:53;;;;;;;1.92;0.88;;;18.40;59.80;;;;;;5057354;28;20305;-71
2021/05/24 10:04:30;;;;;;;1.83;0.50;;;18.60;59.30;;;;;;5059089;28;20029;-71
2021/05/24 10:06:57;;;;;;;1.77;0.90;;;18.60;59.80;;;;;;5059264;28;20029;-72
2021/05/24 10:09:23;;;;;;;2.58;0.60;;;18.60;58.60;;;;;;5060321;28;20024;-72
2021/05/24 10:11:51;;;;;;;2.85;0.60;;;18.70;56.40;;;;;;5059673;28;20044;-72
2021/05/24 10:14:21;;;;;;;2.00;0.52;;;18.70;58.60;;;;;;5061276;28;20052;-72
2021/05/24 10:16:48;;;;;;;3.85;0.88;;;18.70;58.60;;;;;;5056460;28;20492;-70
2021/05/24 10:19:17;;;;;;;2.75;0.70;;;18.70;58.20;;;;;;5058392;28;20029;-71
2021/05/24 10:21:45;;;;;;;2.22;0.60;;;18.60;55.70;;;;;;5058797;28;20028;-70
2021/05/24 10:24:12;;;;;;;3.53;0.80;;;18.50;56.50;;;;;;5060403;28;20123;-70
2021/05/24 10:26:40;;;;;;;4.05;0.70;;;18.50;57.30;;;;;;5059574;28;20029;-73
2021/05/24 10:29:08;;;;;;;2.90;0.70;;;18.50;57.80;;;;;;5059853;28;20027;-71
2021/05/24 10:31:35;;;;;;;2.40;0.63;;;18.70;57.10;;;;;;5060240;28;20083;-71
2021/05/24 10:34:18;;;;;;;0.88;0.40;;;18.70;55.50;;;;;;5059987;28;20033;-71
2021/05/24 10:36:46;;;;;;;2.08;0.63;;;18.80;56.90;;;;;;5059047;28;20032;-71
2021/05/24 10:39:23;;;;;;;3.70;0.63;;;18.70;57.10;;;;;;5061412;28;20041;-71
2021/05/24 10:41:51;;;;;;;1.38;0.60;;;18.70;54.40;;;;;;5057792;28;20290;-71
2021/05/24 10:44:44;;;;;;;2.15;0.60;;;18.60;54.50;;;;;;5063132;28;20024;-70
2021/05/24 10:47:21;;;;;;;1.65;0.65;;;18.60;53.70;;;;;;5042835;28;20028;-73
2021/05/24 10:50:04;;;;;;;1.35;0.63;;;18.70;54.90;;;;;;5042795;28;20549;-72
2021/05/24 10:52:40;;;;;;;2.58;0.60;;;18.80;54.00;;;;;;5045598;28;20100;-72
2021/05/24 10:55:25;;;;;;;2.63;0.70;;;19.00;54.00;;;;;;5065269;28;20043;-70
2021/05/24 10:58:04;;;;;;;3.80;0.88;;;19.20;54.50;;;;;;5063543;28;20108;-69
2021/05/24 11:00:51;;;;;;;4.75;0.90;;;19.40;54.10;;;;;;5059545;28;20029;-71
2021/05/24 11:03:17;;;;;;;1.95;0.85;;;19.30;53.50;;;;;;5059267;28;20450;-71
2021/05/24 11:05:47;;;;;;;2.78;0.90;;;19.30;52.20;;;;;;5060076;28;20040;-71
2021/05/24 11:08:29;;;;;;;2.55;0.70;;;19.40;51.90;;;;;;5065086;28;20037;-65
2021/05/24 11:10:54;;;;;;;1.98;0.52;;;19.60;54.60;;;;;;5063068;28;20501;-70
2021/05/24 11:13:22;;;;;;;2.05;0.70;;;19.90;50.00;;;;;;5055608;28;20033;-70
2021/05/24 11:15:51;;;;;;;1.48;0.60;;;20.30;49.30;;;;;;5058521;28;20155;-69
2021/05/24 11:18:26;;;;;;;0.95;0.40;;;20.50;44.90;;;;;;5061754;28;20033;-73
2021/05/24 11:21:01;;;;;;;1.98;0.98;;;20.40;44.50;;;;;;5068286;28;20112;-70
2021/05/24 11:28:52;;;;;;;1.88;0.50;;;24.80;35.80;;;;;;5063534;28;20029;-68
2021/05/24 11:31:32;;;;;;;1.13;0.73;;;25.50;34.60;;;;;;5063444;28;20086;-68
2021/05/24 11:33:59;;;;;;;1.65;0.43;;;25.00;34.00;;;;;;5061732;28;20032;-69
2021/05/24 11:36:39;;;;;;;0.85;0.40;;;24.30;33.80;;;;;;5064377;28;20029;-69
2021/05/24 11:39:11;;;;;;;;;;;23.40;33.40;;;;;;5058982;28;20039;-69
2021/05/24 11:41:45;;;;;;;1.08;0.70;;;22.50;33.90;;;;;;5061805;28;20309;-69
2021/05/24 11:44:12;;;;;;;1.95;0.75;;;21.80;36.70;;;;;;5061868;28;20593;-68
2021/05/24 11:46:46;;;;;;;1.85;0.60;;;21.40;37.30;;;;;;5044014;28;20071;-71
2021/05/24 11:49:14;;;;;;;1.75;0.50;;;21.40;38.50;;;;;;5062808;28;20036;-69
2021/05/24 11:51:41;;;;;;;1.15;0.50;;;22.80;37.50;;;;;;5063777;28;20032;-70
2021/05/24 11:54:19;;;;;;;2.85;0.55;;;23.90;33.80;;;;;;5063335;28;20033;-69
2021/05/24 11:56:50;;;;;;;0.68;0.50;;;24.20;32.10;;;;;;5062550;28;20064;-69
2021/05/24 11:59:21;;;;;;;0.90;0.60;;;24.30;32.20;;;;;;5063869;28;20025;-70
2021/05/24 12:01:49;;;;;;;1.23;0.75;;;25.10;32.40;;;;;;5039840;28;20143;-70
2021/05/24 12:04:18;;;;;;;2.10;0.45;;;25.90;31.50;;;;;;5060875;28;20024;-69
2021/05/24 12:06:44;;;;;;;1.48;0.63;;;26.10;31.50;;;;;;5039860;28;20601;-69
2021/05/24 12:09:11;;;;;;;1.80;0.60;;;25.70;30.90;;;;;;5046455;28;20037;-69
2021/05/24 12:11:53;;;;;;;1.02;0.40;;;25.70;32.00;;;;;;5062880;28;20151;-69
2021/05/24 12:14:19;;;;;;;1.77;0.57;;;25.80;31.50;;;;;;5058311;28;20461;-70
2021/05/24 12:16:44;;;;;;;7.97;1.05;;;25.80;31.60;;;;;;5059241;28;20048;-70
2021/05/24 12:19:10;;;;;;;1.75;0.47;;;25.70;33.10;;;;;;5055348;28;20466;-69
2021/05/24 12:21:42;;;;;;;3.00;0.60;;;25.50;30.70;;;;;;5046712;28;20021;-70
2021/05/24 12:24:11;;;;;;;2.08;0.70;;;25.30;30.90;;;;;;5061524;28;20029;-69
2021/05/24 12:26:44;;;;;;;2.38;0.60;;;24.90;32.20;;;;;;5059452;28;20060;-69
2021/05/24 12:29:10;;;;;;;1.98;0.68;;;25.10;30.40;;;;;;5069163;28;20044;-71
2021/05/24 12:31:36;;;;;;;1.98;0.60;;;25.50;33.00;;;;;;5066093;28;20032;-72
2021/05/24 12:34:02;;;;;;;2.50;0.70;;;25.90;30.80;;;;;;5064240;28;20058;-70
2021/05/24 12:39:18;;;;;;;3.03;0.80;;;26.70;33.20;;;;;;5061164;28;20033;-71
2021/05/24 12:41:49;;;;;;;3.20;0.80;;;27.20;32.60;;;;;;5048964;28;20021;-71
2021/05/24 12:44:17;;;;;;;1.35;0.60;;;27.30;27.80;;;;;;5063884;28;20032;-72
2021/05/24 12:46:43;;;;;;;2.15;0.77;;;26.40;29.40;;;;;;5059498;28;20033;-70
2021/05/24 12:49:09;;;;;;;2.55;0.68;;;26.10;31.40;;;;;;5059433;28;20701;-68
2021/05/24 12:51:35;;;;;;;1.42;0.47;;;26.50;29.50;;;;;;5060390;28;20035;-66
2021/05/24 12:54:04;;;;;;;0.85;0.50;;;26.80;29.00;;;;;;5062288;28;20371;-67
2021/05/24 12:56:40;;;;;;;4.68;0.80;;;27.40;28.30;;;;;;5060664;28;20103;-68
2021/05/24 12:59:14;;;;;;;2.33;0.70;;;27.90;29.90;;;;;;5058990;28;20471;-69